sensor_id;sensor_type;location;lat;lon;timestamp;P1;P4;P2;P0;N10;N4;N25;N1;N05;TS
44530;SPS30;30240;47.418;0.700;2024-01-30T00:01:28;22.106575;;22.106575;;;;;;;
44530;SPS30;30240;47.418;0.700;2024-01-30T00:03:53;21.124495;;21.108265;;;;;;;
44530;SPS30;30240;47.418;0.700;2024-01-30T00:06:18;19.995684;;19.990736;;;;;;;
44530;SPS30;30240;47.418;0.700;2024-01-30T00:08:44;19.974503;;19.888742;;;;;;;
44530;SPS30;30240;47.418;0.700;2024-01-30T00:11:08;19.974503;;19.888742;;;;;;;
44530;SPS30;30240;47.418;0.700;2024-01-30T00:13:33;34.101303;;33.500084;;;;;;;
44530;SPS30;30240;47.418;0.700;2024-01-30T00:15:58;34.808628;;33.235252;;;;;;;
44530;SPS30;30240;47.418;0.700;2024-01-30T00:18:23;20.717186;;20.49743;;;;;;;
44530;SPS30;30240;47.418;0.700;2024-01-30T00:20:48;22.797016;;22.572212;;;;;;;
44530;SPS30;30240;47.418;0.700;2024-01-30T00:23:13;22.797016;;22.572212;;;;;;;
44530;SPS30;30240;47.418;0.700;2024-01-30T00:25:38;19.79293;;19.74956;;;;;;;
44530;SPS30;30240;47.418;0.700;2024-01-30T00:28:03;18.362108;;18.1892;;;;;;;
44530;SPS30;30240;47.418;0.700;2024-01-30T00:30:28;21.434952;;21.290325;;;;;;;
44530;SPS30;30240;47.418;0.700;2024-01-30T00:32:53;19.643927;;19.471806;;;;;;;
44530;SPS30;30240;47.418;0.700;2024-01-30T00:35:18;17.742523;;17.730497;;;;;;;
44530;SPS30;30240;47.418;0.700;2024-01-30T00:37:43;17.742523;;17.730497;;;;;;;
44530;SPS30;30240;47.418;0.700;2024-01-30T00:40:09;17.715445;;17.583883;;;;;;;
44530;SPS30;30240;47.418;0.700;2024-01-30T00:42:33;20.533579;;20.44979;;;;;;;
44530;SPS30;30240;47.418;0.700;2024-01-30T00:44:58;17.381227;;17.192322;;;;;;;
44530;SPS30;30240;47.418;0.700;2024-01-30T00:47:24;15.263854;;15.095462;;;;;;;
44530;SPS30;30240;47.418;0.700;2024-01-30T00:49:48;15.263854;;15.095462;;;;;;;
44530;SPS30;30240;47.418;0.700;2024-01-30T00:52:13;17.100304;;16.986637;;;;;;;
44530;SPS30;30240;47.418;0.700;2024-01-30T00:54:38;19.603085;;19.21161;;;;;;;
44530;SPS30;30240;47.418;0.700;2024-01-30T00:57:04;19.964043;;19.391449;;;;;;;
44530;SPS30;30240;47.418;0.700;2024-01-30T00:59:28;18.108795;;17.114962;;;;;;;
44530;SPS30;30240;47.418;0.700;2024-01-30T01:01:53;18.108795;;17.114962;;;;;;;
44530;SPS30;30240;47.418;0.700;2024-01-30T01:04:18;39.70383;;37.140114;;;;;;;
44530;SPS30;30240;47.418;0.700;2024-01-30T01:06:44;80.58004;;64.63421;;;;;;;
44530;SPS30;30240;47.418;0.700;2024-01-30T01:09:08;92.83539;;77.08382;;;;;;;
44530;SPS30;30240;47.418;0.700;2024-01-30T01:11:33;135.78566;;106.79413;;;;;;;
44530;SPS30;30240;47.418;0.700;2024-01-30T01:13:59;135.78566;;106.79413;;;;;;;
44530;SPS30;30240;47.418;0.700;2024-01-30T01:16:24;89.67109;;72.83345;;;;;;;
44530;SPS30;30240;47.418;0.700;2024-01-30T01:18:48;30.614693;;28.356276;;;;;;;
44530;SPS30;30240;47.418;0.700;2024-01-30T01:21:13;30.992092;;28.836391;;;;;;;
44530;SPS30;30240;47.418;0.700;2024-01-30T01:23:38;30.468155;;29.862984;;;;;;;
44530;SPS30;30240;47.418;0.700;2024-01-30T01:26:04;30.468155;;29.862984;;;;;;;
44530;SPS30;30240;47.418;0.700;2024-01-30T01:28:28;18.905237;;18.881374;;;;;;;
44530;SPS30;30240;47.418;0.700;2024-01-30T01:30:53;15.56438;;15.56438;;;;;;;
44530;SPS30;30240;47.418;0.700;2024-01-30T01:33:18;14.909337;;14.89235;;;;;;;
44530;SPS30;30240;47.418;0.700;2024-01-30T01:35:43;13.2277155;;13.223045;;;;;;;
44530;SPS30;30240;47.418;0.700;2024-01-30T01:38:08;13.2277155;;13.223045;;;;;;;
44530;SPS30;30240;47.418;0.700;2024-01-30T01:40:33;12.877521;;12.795118;;;;;;;
44530;SPS30;30240;47.418;0.700;2024-01-30T01:42:58;13.033704;;12.906309;;;;;;;
44530;SPS30;30240;47.418;0.700;2024-01-30T01:45:23;12.467566;;12.46755;;;;;;;
44530;SPS30;30240;47.418;0.700;2024-01-30T01:47:50;11.098662;;11.098662;;;;;;;
44530;SPS30;30240;47.418;0.700;2024-01-30T01:50:13;11.098662;;11.098662;;;;;;;
44530;SPS30;30240;47.418;0.700;2024-01-30T01:52:38;11.886478;;11.819358;;;;;;;
44530;SPS30;30240;47.418;0.700;2024-01-30T01:55:04;10.537077;;10.446089;;;;;;;
44530;SPS30;30240;47.418;0.700;2024-01-30T01:57:28;11.935231;;11.933725;;;;;;;
44530;SPS30;30240;47.418;0.700;2024-01-30T01:59:53;11.277407;;11.184932;;;;;;;
44530;SPS30;30240;47.418;0.700;2024-01-30T02:02:18;10.6935425;;10.641049;;;;;;;
44530;SPS30;30240;47.418;0.700;2024-01-30T02:04:43;10.6935425;;10.641049;;;;;;;
44530;SPS30;30240;47.418;0.700;2024-01-30T02:07:08;9.753612;;9.675911;;;;;;;
44530;SPS30;30240;47.418;0.700;2024-01-30T02:09:33;10.43654;;10.334401;;;;;;;
44530;SPS30;30240;47.418;0.700;2024-01-30T02:11:58;9.187592;;9.172389;;;;;;;
44530;SPS30;30240;47.418;0.700;2024-01-30T02:14:24;9.6356;;9.513772;;;;;;;
44530;SPS30;30240;47.418;0.700;2024-01-30T02:16:48;9.6356;;9.513772;;;;;;;
44530;SPS30;30240;47.418;0.700;2024-01-30T02:19:13;9.559261;;9.475103;;;;;;;
44530;SPS30;30240;47.418;0.700;2024-01-30T02:21:38;8.93548;;8.894798;;;;;;;
44530;SPS30;30240;47.418;0.700;2024-01-30T02:24:04;8.788636;;8.768416;;;;;;;
44530;SPS30;30240;47.418;0.700;2024-01-30T02:26:28;9.39233;;9.277282;;;;;;;
44530;SPS30;30240;47.418;0.700;2024-01-30T02:28:53;9.39233;;9.277282;;;;;;;
44530;SPS30;30240;47.418;0.700;2024-01-30T02:31:18;9.245898;;9.132335;;;;;;;
44530;SPS30;30240;47.418;0.700;2024-01-30T02:33:43;8.464352;;8.368143;;;;;;;
44530;SPS30;30240;47.418;0.700;2024-01-30T02:36:08;9.17847;;9.178407;;;;;;;
44530;SPS30;30240;47.418;0.700;2024-01-30T02:38:33;11.0652895;;11.064309;;;;;;;
44530;SPS30;30240;47.418;0.700;2024-01-30T02:40:58;11.0652895;;11.064309;;;;;;;
44530;SPS30;30240;47.418;0.700;2024-01-30T02:43:23;9.510685;;9.376064;;;;;;;
44530;SPS30;30240;47.418;0.700;2024-01-30T02:45:48;9.406819;;9.302386;;;;;;;
44530;SPS30;30240;47.418;0.700;2024-01-30T02:48:13;11.680012;;11.572456;;;;;;;
44530;SPS30;30240;47.418;0.700;2024-01-30T02:50:38;12.635604;;12.495938;;;;;;;
44530;SPS30;30240;47.418;0.700;2024-01-30T02:53:03;12.635604;;12.495938;;;;;;;
44530;SPS30;30240;47.418;0.700;2024-01-30T02:55:29;10.3427105;;10.287339;;;;;;;
44530;SPS30;30240;47.418;0.700;2024-01-30T02:57:53;10.978871;;10.895604;;;;;;;
44530;SPS30;30240;47.418;0.700;2024-01-30T03:00:19;9.646898;;9.5697365;;;;;;;
44530;SPS30;30240;47.418;0.700;2024-01-30T03:02:43;8.363901;;8.333513;;;;;;;
44530;SPS30;30240;47.418;0.700;2024-01-30T03:05:08;8.363901;;8.333513;;;;;;;
44530;SPS30;30240;47.418;0.700;2024-01-30T03:07:33;9.087751;;9.081521;;;;;;;
44530;SPS30;30240;47.418;0.700;2024-01-30T03:09:58;9.761915;;9.761786;;;;;;;
44530;SPS30;30240;47.418;0.700;2024-01-30T03:12:24;9.549001;;9.491617;;;;;;;
44530;SPS30;30240;47.418;0.700;2024-01-30T03:14:49;8.25688;;8.254199;;;;;;;
44530;SPS30;30240;47.418;0.700;2024-01-30T03:17:13;8.25688;;8.254199;;;;;;;
44530;SPS30;30240;47.418;0.700;2024-01-30T03:19:38;8.157964;;8.157964;;;;;;;
44530;SPS30;30240;47.418;0.700;2024-01-30T03:22:03;8.996504;;8.996504;;;;;;;
44530;SPS30;30240;47.418;0.700;2024-01-30T03:24:28;8.48327;;8.465186;;;;;;;
44530;SPS30;30240;47.418;0.700;2024-01-30T03:26:53;9.147239;;9.067578;;;;;;;
44530;SPS30;30240;47.418;0.700;2024-01-30T03:29:19;9.147239;;9.067578;;;;;;;
44530;SPS30;30240;47.418;0.700;2024-01-30T03:31:43;8.419205;;8.418609;;;;;;;
44530;SPS30;30240;47.418;0.700;2024-01-30T03:34:08;8.394827;;8.394827;;;;;;;
44530;SPS30;30240;47.418;0.700;2024-01-30T03:36:33;7.561587;;7.5246487;;;;;;;
44530;SPS30;30240;47.418;0.700;2024-01-30T03:38:58;7.836871;;7.806641;;;;;;;
44530;SPS30;30240;47.418;0.700;2024-01-30T03:41:23;8.417855;;8.389538;;;;;;;
44530;SPS30;30240;47.418;0.700;2024-01-30T03:43:49;8.417855;;8.389538;;;;;;;
44530;SPS30;30240;47.418;0.700;2024-01-30T03:46:13;8.402633;;8.349804;;;;;;;
44530;SPS30;30240;47.418;0.700;2024-01-30T03:48:38;7.4395685;;7.4139404;;;;;;;
44530;SPS30;30240;47.418;0.700;2024-01-30T03:51:03;7.5456614;;7.521296;;;;;;;
44530;SPS30;30240;47.418;0.700;2024-01-30T03:53:29;8.220128;;8.220128;;;;;;;
44530;SPS30;30240;47.418;0.700;2024-01-30T03:55:53;8.220128;;8.220128;;;;;;;
44530;SPS30;30240;47.418;0.700;2024-01-30T03:58:18;8.145272;;8.057603;;;;;;;
44530;SPS30;30240;47.418;0.700;2024-01-30T04:00:43;6.59205;;6.592046;;;;;;;
44530;SPS30;30240;47.418;0.700;2024-01-30T04:03:08;7.5320134;;7.5320134;;;;;;;
44530;SPS30;30240;47.418;0.700;2024-01-30T04:05:33;6.874998;;6.874998;;;;;;;
44530;SPS30;30240;47.418;0.700;2024-01-30T04:07:58;6.874998;;6.874998;;;;;;;
44530;SPS30;30240;47.418;0.700;2024-01-30T04:10:24;6.936181;;6.9357038;;;;;;;
44530;SPS30;30240;47.418;0.700;2024-01-30T04:12:49;7.8103952;;7.8103952;;;;;;;
44530;SPS30;30240;47.418;0.700;2024-01-30T04:15:13;7.5636277;;7.506545;;;;;;;
44530;SPS30;30240;47.418;0.700;2024-01-30T04:17:38;7.4369845;;7.37844;;;;;;;
44530;SPS30;30240;47.418;0.700;2024-01-30T04:20:04;7.4369845;;7.37844;;;;;;;
44530;SPS30;30240;47.418;0.700;2024-01-30T04:22:28;6.8474636;;6.8474145;;;;;;;
44530;SPS30;30240;47.418;0.700;2024-01-30T04:24:54;6.3499837;;6.3499837;;;;;;;
44530;SPS30;30240;47.418;0.700;2024-01-30T04:27:18;7.2394133;;7.23937;;;;;;;
44530;SPS30;30240;47.418;0.700;2024-01-30T04:29:43;6.7956266;;6.789824;;;;;;;
44530;SPS30;30240;47.418;0.700;2024-01-30T04:32:09;6.7956266;;6.789824;;;;;;;
44530;SPS30;30240;47.418;0.700;2024-01-30T04:34:33;7.6985993;;7.6985993;;;;;;;
44530;SPS30;30240;47.418;0.700;2024-01-30T04:36:58;6.707193;;6.707193;;;;;;;
44530;SPS30;30240;47.418;0.700;2024-01-30T04:39:23;6.3827844;;6.3827844;;;;;;;
44530;SPS30;30240;47.418;0.700;2024-01-30T04:41:48;6.2616158;;6.2616158;;;;;;;
44530;SPS30;30240;47.418;0.700;2024-01-30T04:44:13;6.2616158;;6.2616158;;;;;;;
44530;SPS30;30240;47.418;0.700;2024-01-30T04:46:38;6.0681276;;6.035739;;;;;;;
44530;SPS30;30240;47.418;0.700;2024-01-30T04:49:03;6.275061;;6.26923;;;;;;;
44530;SPS30;30240;47.418;0.700;2024-01-30T04:51:28;6.713286;;6.7132816;;;;;;;
44530;SPS30;30240;47.418;0.700;2024-01-30T04:53:54;6.7398458;;6.7398458;;;;;;;
44530;SPS30;30240;47.418;0.700;2024-01-30T04:56:18;6.7398458;;6.7398458;;;;;;;
44530;SPS30;30240;47.418;0.700;2024-01-30T04:58:43;6.9815817;;6.9373646;;;;;;;
44530;SPS30;30240;47.418;0.700;2024-01-30T05:01:08;6.7034187;;6.639396;;;;;;;
44530;SPS30;30240;47.418;0.700;2024-01-30T05:03:33;6.3400965;;6.3362875;;;;;;;
44530;SPS30;30240;47.418;0.700;2024-01-30T05:05:58;6.429465;;6.399102;;;;;;;
44530;SPS30;30240;47.418;0.700;2024-01-30T05:08:23;6.5931883;;6.5511146;;;;;;;
44530;SPS30;30240;47.418;0.700;2024-01-30T05:10:48;6.5931883;;6.5511146;;;;;;;
44530;SPS30;30240;47.418;0.700;2024-01-30T05:13:13;6.036267;;6.025118;;;;;;;
44530;SPS30;30240;47.418;0.700;2024-01-30T05:15:38;6.045098;;6.045098;;;;;;;
44530;SPS30;30240;47.418;0.700;2024-01-30T05:18:03;5.9881635;;5.9881635;;;;;;;
44530;SPS30;30240;47.418;0.700;2024-01-30T05:20:28;6.1473494;;6.1286387;;;;;;;
44530;SPS30;30240;47.418;0.700;2024-01-30T05:22:53;6.1473494;;6.1286387;;;;;;;
44530;SPS30;30240;47.418;0.700;2024-01-30T05:25:18;6.027432;;5.9545193;;;;;;;
44530;SPS30;30240;47.418;0.700;2024-01-30T05:27:43;5.912682;;5.844267;;;;;;;
44530;SPS30;30240;47.418;0.700;2024-01-30T05:30:09;6.3205676;;6.32033;;;;;;;
44530;SPS30;30240;47.418;0.700;2024-01-30T05:32:34;5.6958795;;5.640761;;;;;;;
44530;SPS30;30240;47.418;0.700;2024-01-30T05:34:58;5.6958795;;5.640761;;;;;;;
44530;SPS30;30240;47.418;0.700;2024-01-30T05:37:23;6.0197315;;5.9926224;;;;;;;
44530;SPS30;30240;47.418;0.700;2024-01-30T05:39:49;5.957814;;5.923827;;;;;;;
44530;SPS30;30240;47.418;0.700;2024-01-30T05:42:13;6.4557834;;6.4541397;;;;;;;
44530;SPS30;30240;47.418;0.700;2024-01-30T05:44:38;5.448879;;5.4468455;;;;;;;
44530;SPS30;30240;47.418;0.700;2024-01-30T05:47:03;5.448879;;5.4468455;;;;;;;
44530;SPS30;30240;47.418;0.700;2024-01-30T05:49:29;5.3838587;;5.3838587;;;;;;;
44530;SPS30;30240;47.418;0.700;2024-01-30T05:51:53;5.47746;;5.47746;;;;;;;
44530;SPS30;30240;47.418;0.700;2024-01-30T05:54:18;5.330985;;5.3309817;;;;;;;
44530;SPS30;30240;47.418;0.700;2024-01-30T05:56:44;4.762033;;4.762033;;;;;;;
44530;SPS30;30240;47.418;0.700;2024-01-30T05:59:08;4.762033;;4.762033;;;;;;;
44530;SPS30;30240;47.418;0.700;2024-01-30T06:01:33;5.598827;;5.5486298;;;;;;;
44530;SPS30;30240;47.418;0.700;2024-01-30T06:03:58;5.040677;;5.040647;;;;;;;
44530;SPS30;30240;47.418;0.700;2024-01-30T06:06:24;5.5380144;;5.5380144;;;;;;;
44530;SPS30;30240;47.418;0.700;2024-01-30T06:08:49;6.2062044;;6.2062044;;;;;;;
44530;SPS30;30240;47.418;0.700;2024-01-30T06:11:13;6.2062044;;6.2062044;;;;;;;
44530;SPS30;30240;47.418;0.700;2024-01-30T06:13:39;5.406613;;5.406613;;;;;;;
44530;SPS30;30240;47.418;0.700;2024-01-30T06:16:04;5.558693;;5.558693;;;;;;;
44530;SPS30;30240;47.418;0.700;2024-01-30T06:18:29;5.173263;;5.1529818;;;;;;;
44530;SPS30;30240;47.418;0.700;2024-01-30T06:20:54;5.0936556;;5.0936556;;;;;;;
44530;SPS30;30240;47.418;0.700;2024-01-30T06:23:19;5.0936556;;5.0936556;;;;;;;
44530;SPS30;30240;47.418;0.700;2024-01-30T06:25:43;5.6838236;;5.6838236;;;;;;;
44530;SPS30;30240;47.418;0.700;2024-01-30T06:28:08;4.9057274;;4.8985066;;;;;;;
44530;SPS30;30240;47.418;0.700;2024-01-30T06:30:34;5.0078435;;5.0078435;;;;;;;
44530;SPS30;30240;47.418;0.700;2024-01-30T06:32:58;6.032823;;5.985174;;;;;;;
44530;SPS30;30240;47.418;0.700;2024-01-30T06:35:23;6.032823;;5.985174;;;;;;;
44530;SPS30;30240;47.418;0.700;2024-01-30T06:37:48;5.022021;;5.0101438;;;;;;;
44530;SPS30;30240;47.418;0.700;2024-01-30T06:40:14;5.6793065;;5.6793065;;;;;;;
44530;SPS30;30240;47.418;0.700;2024-01-30T06:42:39;5.153157;;5.153157;;;;;;;
44530;SPS30;30240;47.418;0.700;2024-01-30T06:45:04;4.9623184;;4.936649;;;;;;;
44530;SPS30;30240;47.418;0.700;2024-01-30T06:47:28;5.3571672;;5.357105;;;;;;;
44530;SPS30;30240;47.418;0.700;2024-01-30T06:49:53;5.3571672;;5.357105;;;;;;;
44530;SPS30;30240;47.418;0.700;2024-01-30T06:52:19;5.713406;;5.713406;;;;;;;
44530;SPS30;30240;47.418;0.700;2024-01-30T06:54:43;6.6140246;;6.5998726;;;;;;;
44530;SPS30;30240;47.418;0.700;2024-01-30T06:57:09;7.839506;;7.827335;;;;;;;
44530;SPS30;30240;47.418;0.700;2024-01-30T06:59:33;7.103272;;7.0616746;;;;;;;
44530;SPS30;30240;47.418;0.700;2024-01-30T07:01:58;7.103272;;7.0616746;;;;;;;
44530;SPS30;30240;47.418;0.700;2024-01-30T07:04:23;7.911395;;7.887463;;;;;;;
44530;SPS30;30240;47.418;0.700;2024-01-30T07:06:48;9.668949;;9.56693;;;;;;;
44530;SPS30;30240;47.418;0.700;2024-01-30T07:09:14;6.288874;;6.2298484;;;;;;;
44530;SPS30;30240;47.418;0.700;2024-01-30T07:11:38;6.1874213;;6.1579976;;;;;;;
44530;SPS30;30240;47.418;0.700;2024-01-30T07:14:03;6.1874213;;6.1579976;;;;;;;
44530;SPS30;30240;47.418;0.700;2024-01-30T07:16:28;5.7694783;;5.739926;;;;;;;
44530;SPS30;30240;47.418;0.700;2024-01-30T07:18:53;5.3133664;;5.27064;;;;;;;
44530;SPS30;30240;47.418;0.700;2024-01-30T07:21:19;6.490401;;6.490401;;;;;;;
44530;SPS30;30240;47.418;0.700;2024-01-30T07:23:43;5.9715104;;5.9706764;;;;;;;
44530;SPS30;30240;47.418;0.700;2024-01-30T07:26:08;5.9715104;;5.9706764;;;;;;;
44530;SPS30;30240;47.418;0.700;2024-01-30T07:28:34;5.8561516;;5.8561516;;;;;;;
44530;SPS30;30240;47.418;0.700;2024-01-30T07:30:58;5.3147306;;5.3147306;;;;;;;
44530;SPS30;30240;47.418;0.700;2024-01-30T07:33:23;6.680473;;6.680473;;;;;;;
44530;SPS30;30240;47.418;0.700;2024-01-30T07:35:49;5.7451086;;5.7451086;;;;;;;
44530;SPS30;30240;47.418;0.700;2024-01-30T07:38:13;5.7451086;;5.7451086;;;;;;;
44530;SPS30;30240;47.418;0.700;2024-01-30T07:40:38;5.8162737;;5.7952785;;;;;;;
44530;SPS30;30240;47.418;0.700;2024-01-30T07:43:04;6.046699;;6.019519;;;;;;;
44530;SPS30;30240;47.418;0.700;2024-01-30T07:45:28;6.1494355;;6.1494355;;;;;;;
44530;SPS30;30240;47.418;0.700;2024-01-30T07:47:54;6.1771436;;6.176691;;;;;;;
44530;SPS30;30240;47.418;0.700;2024-01-30T07:50:19;6.1771436;;6.176691;;;;;;;
44530;SPS30;30240;47.418;0.700;2024-01-30T07:52:43;16.092203;;15.991688;;;;;;;
44530;SPS30;30240;47.418;0.700;2024-01-30T07:55:08;9.6534395;;9.641953;;;;;;;
44530;SPS30;30240;47.418;0.700;2024-01-30T07:57:33;9.571559;;9.571559;;;;;;;
44530;SPS30;30240;47.418;0.700;2024-01-30T07:59:58;7.8350306;;7.763421;;;;;;;
44530;SPS30;30240;47.418;0.700;2024-01-30T08:02:24;7.8350306;;7.763421;;;;;;;
44530;SPS30;30240;47.418;0.700;2024-01-30T08:04:48;7.2131443;;7.118788;;;;;;;
44530;SPS30;30240;47.418;0.700;2024-01-30T08:07:13;9.344617;;9.290108;;;;;;;
44530;SPS30;30240;47.418;0.700;2024-01-30T08:09:38;19.268768;;19.241068;;;;;;;
44530;SPS30;30240;47.418;0.700;2024-01-30T08:12:04;11.9750185;;11.771697;;;;;;;
44530;SPS30;30240;47.418;0.700;2024-01-30T08:14:28;9.165134;;9.163741;;;;;;;
44530;SPS30;30240;47.418;0.700;2024-01-30T08:16:53;9.165134;;9.163741;;;;;;;
44530;SPS30;30240;47.418;0.700;2024-01-30T08:19:18;8.21098;;8.112133;;;;;;;
44530;SPS30;30240;47.418;0.700;2024-01-30T08:21:43;7.9252887;;7.9252887;;;;;;;
44530;SPS30;30240;47.418;0.700;2024-01-30T08:24:08;6.0522733;;6.022095;;;;;;;
44530;SPS30;30240;47.418;0.700;2024-01-30T08:26:33;7.0638804;;7.0638804;;;;;;;
44530;SPS30;30240;47.418;0.700;2024-01-30T08:28:58;7.0638804;;7.0638804;;;;;;;
44530;SPS30;30240;47.418;0.700;2024-01-30T08:31:24;6.592982;;6.582683;;;;;;;
44530;SPS30;30240;47.418;0.700;2024-01-30T08:33:48;6.9641304;;6.9034476;;;;;;;
44530;SPS30;30240;47.418;0.700;2024-01-30T08:36:13;5.535637;;5.535637;;;;;;;
44530;SPS30;30240;47.418;0.700;2024-01-30T08:38:38;6.595149;;6.582142;;;;;;;
44530;SPS30;30240;47.418;0.700;2024-01-30T08:41:03;6.595149;;6.582142;;;;;;;
44530;SPS30;30240;47.418;0.700;2024-01-30T08:43:29;6.5218153;;6.5218153;;;;;;;
44530;SPS30;30240;47.418;0.700;2024-01-30T08:45:53;7.0373497;;7.0373497;;;;;;;
44530;SPS30;30240;47.418;0.700;2024-01-30T08:48:18;6.5980268;;6.5980268;;;;;;;
44530;SPS30;30240;47.418;0.700;2024-01-30T08:50:43;6.01837;;6.0179577;;;;;;;
44530;SPS30;30240;47.418;0.700;2024-01-30T08:53:08;6.01837;;6.0179577;;;;;;;
44530;SPS30;30240;47.418;0.700;2024-01-30T08:55:33;8.050885;;8.050885;;;;;;;
44530;SPS30;30240;47.418;0.700;2024-01-30T08:57:58;6.6841006;;6.6835527;;;;;;;
44530;SPS30;30240;47.418;0.700;2024-01-30T09:00:23;6.6910644;;6.690216;;;;;;;
44530;SPS30;30240;47.418;0.700;2024-01-30T09:02:48;7.6333194;;7.6331677;;;;;;;
44530;SPS30;30240;47.418;0.700;2024-01-30T09:05:13;7.6333194;;7.6331677;;;;;;;
44530;SPS30;30240;47.418;0.700;2024-01-30T09:07:38;6.8752885;;6.8752885;;;;;;;
44530;SPS30;30240;47.418;0.700;2024-01-30T09:10:04;6.3100376;;6.3100376;;;;;;;
44530;SPS30;30240;47.418;0.700;2024-01-30T09:12:29;6.494459;;6.4093766;;;;;;;
44530;SPS30;30240;47.418;0.700;2024-01-30T09:14:53;6.7748237;;6.714236;;;;;;;
44530;SPS30;30240;47.418;0.700;2024-01-30T09:17:18;6.7748237;;6.714236;;;;;;;
44530;SPS30;30240;47.418;0.700;2024-01-30T09:19:43;6.9338884;;6.933322;;;;;;;
44530;SPS30;30240;47.418;0.700;2024-01-30T09:22:08;6.988128;;6.8878636;;;;;;;
44530;SPS30;30240;47.418;0.700;2024-01-30T09:24:33;6.753672;;6.711778;;;;;;;
44530;SPS30;30240;47.418;0.700;2024-01-30T09:26:59;6.935053;;6.912468;;;;;;;
44530;SPS30;30240;47.418;0.700;2024-01-30T09:29:23;6.935053;;6.912468;;;;;;;
44530;SPS30;30240;47.418;0.700;2024-01-30T09:31:48;6.888882;;6.841222;;;;;;;
44530;SPS30;30240;47.418;0.700;2024-01-30T09:34:13;7.333997;;7.3339925;;;;;;;
44530;SPS30;30240;47.418;0.700;2024-01-30T09:36:38;9.870466;;9.870466;;;;;;;
44530;SPS30;30240;47.418;0.700;2024-01-30T09:39:03;8.348403;;8.268498;;;;;;;
44530;SPS30;30240;47.418;0.700;2024-01-30T09:41:29;8.348403;;8.268498;;;;;;;
44530;SPS30;30240;47.418;0.700;2024-01-30T09:43:54;8.472231;;8.472231;;;;;;;
44530;SPS30;30240;47.418;0.700;2024-01-30T09:46:18;7.176501;;7.1477146;;;;;;;
44530;SPS30;30240;47.418;0.700;2024-01-30T09:48:44;8.845601;;8.845601;;;;;;;
44530;SPS30;30240;47.418;0.700;2024-01-30T09:51:09;7.0013785;;7.001301;;;;;;;
44530;SPS30;30240;47.418;0.700;2024-01-30T09:53:33;7.4272866;;7.411377;;;;;;;
44530;SPS30;30240;47.418;0.700;2024-01-30T09:55:58;7.4272866;;7.411377;;;;;;;
44530;SPS30;30240;47.418;0.700;2024-01-30T09:58:24;8.602548;;8.55514;;;;;;;
44530;SPS30;30240;47.418;0.700;2024-01-30T10:00:48;7.7337785;;7.666398;;;;;;;
44530;SPS30;30240;47.418;0.700;2024-01-30T10:03:13;7.445663;;7.388714;;;;;;;
44530;SPS30;30240;47.418;0.700;2024-01-30T10:05:38;7.845495;;7.8223195;;;;;;;
44530;SPS30;30240;47.418;0.700;2024-01-30T10:08:05;7.845495;;7.8223195;;;;;;;
44530;SPS30;30240;47.418;0.700;2024-01-30T10:10:28;7.007565;;6.9079385;;;;;;;
44530;SPS30;30240;47.418;0.700;2024-01-30T10:12:53;6.6689796;;6.6689796;;;;;;;
44530;SPS30;30240;47.418;0.700;2024-01-30T10:15:18;6.603803;;6.570152;;;;;;;
44530;SPS30;30240;47.418;0.700;2024-01-30T10:17:44;7.544937;;7.5320683;;;;;;;
44530;SPS30;30240;47.418;0.700;2024-01-30T10:20:09;7.544937;;7.5320683;;;;;;;
44530;SPS30;30240;47.418;0.700;2024-01-30T10:22:33;8.957359;;8.891085;;;;;;;
44530;SPS30;30240;47.418;0.700;2024-01-30T10:24:58;7.968688;;7.918142;;;;;;;
44530;SPS30;30240;47.418;0.700;2024-01-30T10:27:24;7.06995;;7.019328;;;;;;;
44530;SPS30;30240;47.418;0.700;2024-01-30T10:29:48;9.798598;;9.778581;;;;;;;
44530;SPS30;30240;47.418;0.700;2024-01-30T10:32:14;9.798598;;9.778581;;;;;;;
44530;SPS30;30240;47.418;0.700;2024-01-30T10:34:38;11.834582;;11.757666;;;;;;;
44530;SPS30;30240;47.418;0.700;2024-01-30T10:37:06;9.743214;;9.740958;;;;;;;
44530;SPS30;30240;47.418;0.700;2024-01-30T10:39:29;10.340267;;10.33577;;;;;;;
44530;SPS30;30240;47.418;0.700;2024-01-30T10:41:53;9.703324;;9.665016;;;;;;;
44530;SPS30;30240;47.418;0.700;2024-01-30T10:44:19;9.703324;;9.665016;;;;;;;
44530;SPS30;30240;47.418;0.700;2024-01-30T10:46:43;12.006375;;11.953766;;;;;;;
44530;SPS30;30240;47.418;0.700;2024-01-30T10:49:08;10.21069;;10.126288;;;;;;;
44530;SPS30;30240;47.418;0.700;2024-01-30T10:51:33;11.4975605;;11.479466;;;;;;;
44530;SPS30;30240;47.418;0.700;2024-01-30T10:53:58;14.82599;;14.541185;;;;;;;
44530;SPS30;30240;47.418;0.700;2024-01-30T10:56:24;14.82599;;14.541185;;;;;;;
44530;SPS30;30240;47.418;0.700;2024-01-30T10:58:49;11.837697;;11.73007;;;;;;;
44530;SPS30;30240;47.418;0.700;2024-01-30T11:01:13;11.574926;;11.4637785;;;;;;;
44530;SPS30;30240;47.418;0.700;2024-01-30T11:03:38;9.50857;;9.502453;;;;;;;
44530;SPS30;30240;47.418;0.700;2024-01-30T11:06:04;9.077312;;9.03668;;;;;;;
44530;SPS30;30240;47.418;0.700;2024-01-30T11:08:28;9.077312;;9.03668;;;;;;;
44530;SPS30;30240;47.418;0.700;2024-01-30T11:10:55;8.524371;;8.476068;;;;;;;
44530;SPS30;30240;47.418;0.700;2024-01-30T11:13:18;9.688006;;9.671751;;;;;;;
44530;SPS30;30240;47.418;0.700;2024-01-30T11:15:43;10.1782875;;10.063295;;;;;;;
44530;SPS30;30240;47.418;0.700;2024-01-30T11:18:08;9.755402;;9.684087;;;;;;;
44530;SPS30;30240;47.418;0.700;2024-01-30T11:20:34;9.641607;;9.569744;;;;;;;
44530;SPS30;30240;47.418;0.700;2024-01-30T11:22:59;9.641607;;9.569744;;;;;;;
44530;SPS30;30240;47.418;0.700;2024-01-30T11:25:24;11.562094;;11.467745;;;;;;;
44530;SPS30;30240;47.418;0.700;2024-01-30T11:27:49;9.636838;;9.59305;;;;;;;
44530;SPS30;30240;47.418;0.700;2024-01-30T11:30:22;11.678234;;11.48645;;;;;;;
44530;SPS30;30240;47.418;0.700;2024-01-30T11:32:38;9.21133;;9.081628;;;;;;;
44530;SPS30;30240;47.418;0.700;2024-01-30T11:35:04;9.21133;;9.081628;;;;;;;
44530;SPS30;30240;47.418;0.700;2024-01-30T11:37:28;9.669937;;9.451352;;;;;;;
44530;SPS30;30240;47.418;0.700;2024-01-30T11:39:54;9.623679;;9.55276;;;;;;;
44530;SPS30;30240;47.418;0.700;2024-01-30T11:42:19;10.425974;;10.314932;;;;;;;
44530;SPS30;30240;47.418;0.700;2024-01-30T11:44:46;9.700691;;9.618388;;;;;;;
44530;SPS30;30240;47.418;0.700;2024-01-30T11:47:08;9.700691;;9.618388;;;;;;;
44530;SPS30;30240;47.418;0.700;2024-01-30T11:49:34;9.583212;;9.453146;;;;;;;
44530;SPS30;30240;47.418;0.700;2024-01-30T11:51:58;9.613416;;9.568882;;;;;;;
44530;SPS30;30240;47.418;0.700;2024-01-30T11:54:24;11.21456;;10.984834;;;;;;;
44530;SPS30;30240;47.418;0.700;2024-01-30T11:56:48;10.754338;;10.511591;;;;;;;
44530;SPS30;30240;47.418;0.700;2024-01-30T11:59:13;10.754338;;10.511591;;;;;;;
44530;SPS30;30240;47.418;0.700;2024-01-30T12:01:38;10.454263;;10.339831;;;;;;;
44530;SPS30;30240;47.418;0.700;2024-01-30T12:04:03;11.222643;;11.08539;;;;;;;
44530;SPS30;30240;47.418;0.700;2024-01-30T12:06:28;10.35872;;10.237952;;;;;;;
44530;SPS30;30240;47.418;0.700;2024-01-30T12:08:56;11.406002;;11.3360815;;;;;;;
44530;SPS30;30240;47.418;0.700;2024-01-30T12:11:18;11.406002;;11.3360815;;;;;;;
44530;SPS30;30240;47.418;0.700;2024-01-30T12:13:43;10.247498;;10.075531;;;;;;;
44530;SPS30;30240;47.418;0.700;2024-01-30T12:16:08;10.772793;;10.706325;;;;;;;
44530;SPS30;30240;47.418;0.700;2024-01-30T12:18:33;12.109424;;11.984326;;;;;;;